createdAt,value
2022-10-12T00:00:07.044Z,100295.81
2022-10-12T00:02:50.947Z,100284.06
2022-10-12T00:05:18.440Z,100281.69
2022-10-12T00:07:45.758Z,100284.78
2022-10-12T00:10:13.302Z,100291.72
2022-10-12T00:12:40.650Z,100287.91
2022-10-12T00:15:08.534Z,100292.00
2022-10-12T00:17:36.500Z,100301.38
2022-10-12T00:20:05.319Z,100289.69
2022-10-12T00:22:32.876Z,100299.34
2022-10-12T00:25:00.245Z,100290.72
2022-10-12T00:27:27.587Z,100304.34
2022-10-12T00:29:54.973Z,100300.47
2022-10-12T00:32:22.575Z,100295.00
2022-10-12T00:34:50.016Z,100301.28
2022-10-12T00:37:17.388Z,100306.72
2022-10-12T00:39:44.933Z,100305.59
2022-10-12T00:42:13.263Z,100302.31
2022-10-12T00:50:35.934Z,100295.00
2022-10-12T00:53:10.135Z,100297.97
2022-10-12T00:55:41.312Z,100296.03
2022-10-12T00:58:09.700Z,100289.13
2022-10-12T01:00:39.024Z,100287.63
2022-10-12T01:03:10.048Z,100289.13
2022-10-12T01:05:40.856Z,100294.34
2022-10-12T01:08:08.231Z,100293.44
2022-10-12T01:10:35.650Z,100284.59
2022-10-12T01:13:03.935Z,100286.16
2022-10-12T01:15:39.898Z,100291.03
2022-10-12T01:24:09.742Z,100291.25
2022-10-12T01:29:53.653Z,100298.66
2022-10-12T01:32:27.140Z,100305.25
2022-10-12T01:40:29.740Z,100290.72
2022-10-12T01:42:58.908Z,100290.03
2022-10-12T01:45:26.447Z,100291.59
2022-10-12T01:47:55.591Z,100292.78
2022-10-12T01:50:28.300Z,100290.72
2022-10-12T02:01:26.736Z,100283.66
2022-10-12T02:04:24.194Z,100282.88
2022-10-12T02:07:00.139Z,100274.69
2022-10-12T02:09:30.314Z,100281.84
2022-10-12T02:12:06.266Z,100282.88
2022-10-12T02:14:41.035Z,100275.47
2022-10-12T02:17:13.383Z,100278.22
2022-10-12T02:19:46.328Z,100287.09
2022-10-12T02:22:15.870Z,100281.84
2022-10-12T02:24:46.866Z,100277.31
2022-10-12T02:27:16.190Z,100285.16
2022-10-12T02:29:47.193Z,100282.88
2022-10-12T02:35:03.090Z,100284.22
2022-10-12T02:40:22.121Z,100278.91
2022-10-12T02:43:11.324Z,100277.75
2022-10-12T02:45:42.010Z,100289.13
2022-10-12T02:48:14.133Z,100283.66
2022-10-12T02:50:41.430Z,100282.44
2022-10-12T02:53:09.301Z,100286.19
2022-10-12T02:55:48.888Z,100282.66
2022-10-12T02:58:17.219Z,100283.78
2022-10-12T03:00:44.652Z,100284.91
2022-10-12T03:03:12.127Z,100282.97
2022-10-12T03:05:39.712Z,100291.16
2022-10-12T03:08:07.178Z,100286.50
2022-10-12T03:10:35.146Z,100290.03
2022-10-12T03:13:02.792Z,100291.63
2022-10-12T03:15:31.005Z,100291.75
2022-10-12T03:17:58.840Z,100294.78
2022-10-12T03:20:26.494Z,100293.41
2022-10-12T03:22:53.957Z,100292.06
2022-10-12T03:25:21.430Z,100291.81
2022-10-12T03:27:48.845Z,100290.88
2022-10-12T03:30:16.570Z,100288.16
2022-10-12T03:32:44.117Z,100291.00
2022-10-12T03:35:11.652Z,100284.53
2022-10-12T03:37:39.555Z,100282.16
2022-10-12T03:40:08.499Z,100284.44
2022-10-12T03:42:35.929Z,100305.09
2022-10-12T03:45:03.592Z,100299.56
2022-10-12T03:47:31.238Z,100299.28
2022-10-12T03:49:58.701Z,100293.19
2022-10-12T03:52:26.418Z,100299.69
2022-10-12T03:54:54.250Z,100291.50
2022-10-12T03:57:22.108Z,100296.41
2022-10-12T03:59:50.396Z,100299.25
2022-10-12T04:02:18.249Z,100289.97
2022-10-12T04:04:45.644Z,100291.53
2022-10-12T04:07:13.246Z,100290.28
2022-10-12T04:09:40.864Z,100283.72
2022-10-12T04:12:08.483Z,100281.78
2022-10-12T04:14:35.977Z,100283.34
2022-10-12T04:17:04.499Z,100279.06
2022-10-12T04:19:32.180Z,100286.75
2022-10-12T04:21:59.725Z,100282.91
2022-10-12T04:24:27.663Z,100284.50
2022-10-12T04:26:55.224Z,100286.75
2022-10-12T04:29:23.174Z,100288.03
2022-10-12T04:31:50.743Z,100287.69
2022-10-12T04:34:18.636Z,100292.78
2022-10-12T04:36:46.464Z,100294.41
2022-10-12T04:39:14.008Z,100289.38
2022-10-12T04:41:41.475Z,100289.19
2022-10-12T04:44:09.150Z,100300.41
2022-10-12T04:46:36.580Z,100301.56
2022-10-12T04:49:04.089Z,100298.94
2022-10-12T04:51:31.639Z,100288.16
2022-10-12T04:53:59.106Z,100295.81
2022-10-12T04:56:27.074Z,100293.19
2022-10-12T04:58:54.541Z,100287.75
2022-10-12T05:01:22.257Z,100284.03
2022-10-12T05:03:50.048Z,100292.31
2022-10-12T05:06:17.531Z,100283.56
2022-10-12T05:08:49.835Z,100284.13
2022-10-12T05:11:17.650Z,100291.06
2022-10-12T05:13:45.247Z,100300.59
2022-10-12T05:16:12.784Z,100292.31
2022-10-12T05:18:40.451Z,100290.72
2022-10-12T05:21:08.113Z,100306.16
2022-10-12T05:23:35.628Z,100299.38
2022-10-12T05:26:03.319Z,100302.09
2022-10-12T05:28:30.966Z,100299.84
2022-10-12T05:30:58.506Z,100302.66
2022-10-12T05:33:26.139Z,100302.88
2022-10-12T05:35:56.497Z,100301.19
2022-10-12T05:38:24.453Z,100297.06
2022-10-12T05:40:54.370Z,100294.81
2022-10-12T05:43:25.375Z,100295.25
2022-10-12T05:45:53.099Z,100292.47
2022-10-12T05:48:20.844Z,100291.41
2022-10-12T05:50:48.462Z,100299.44
2022-10-12T05:53:16.162Z,100300.47
2022-10-12T05:55:57.018Z,100293.22
2022-10-12T05:58:25.866Z,100293.13
2022-10-12T06:00:54.214Z,100288.38
2022-10-12T06:03:26.043Z,100293.19
2022-10-12T06:05:54.488Z,100282.50
2022-10-12T06:08:22.142Z,100288.50
2022-10-12T06:10:51.777Z,100280.53
2022-10-12T06:13:20.195Z,100271.47
2022-10-12T06:15:49.358Z,100283.25
2022-10-12T06:18:18.642Z,100283.69
2022-10-12T06:20:49.381Z,100281.78
2022-10-12T06:23:17.993Z,100279.16
2022-10-12T06:25:48.388Z,100283.94
2022-10-12T06:28:17.471Z,100284.22
2022-10-12T06:30:45.143Z,100287.50
2022-10-12T06:33:12.736Z,100287.63
2022-10-12T06:35:40.497Z,100275.53
2022-10-12T06:38:08.067Z,100276.22
2022-10-12T06:40:35.833Z,100271.38
2022-10-12T06:43:03.582Z,100270.00
2022-10-12T06:45:32.191Z,100267.78
2022-10-12T06:48:00.741Z,100268.25
2022-10-12T06:50:28.660Z,100264.88
2022-10-12T06:52:57.156Z,100270.53
2022-10-12T06:55:24.727Z,100267.84
2022-10-12T06:57:52.235Z,100262.16
2022-10-12T07:00:19.811Z,100263.47
2022-10-12T07:02:50.390Z,100273.81
2022-10-12T07:05:18.727Z,100271.22
2022-10-12T07:07:46.318Z,100266.28
2022-10-12T07:10:13.921Z,100258.16
2022-10-12T07:12:41.540Z,100257.25
2022-10-12T07:15:09.544Z,100250.31
2022-10-12T07:17:37.378Z,100254.28
2022-10-12T07:20:06.019Z,100257.03
2022-10-12T07:22:33.773Z,100249.56
2022-10-12T07:25:01.237Z,100259.50
2022-10-12T07:27:30.430Z,100258.41
2022-10-12T07:29:57.858Z,100253.28
2022-10-12T07:32:25.573Z,100257.63
2022-10-12T07:34:53.128Z,100249.72
2022-10-12T07:37:20.580Z,100250.59
2022-10-12T07:39:48.119Z,100253.38
2022-10-12T07:42:19.244Z,100252.56
2022-10-12T07:44:47.289Z,100252.97
2022-10-12T07:47:16.752Z,100250.59
2022-10-12T07:49:44.388Z,100247.75
2022-10-12T07:52:11.821Z,100244.53
2022-10-12T07:54:39.228Z,100240.50
2022-10-12T07:57:06.604Z,100244.78
2022-10-12T07:59:34.080Z,100249.88
2022-10-12T08:02:01.544Z,100238.41
2022-10-12T08:04:29.268Z,100242.75
2022-10-12T08:06:58.270Z,100240.25
2022-10-12T08:09:36.197Z,100234.28
2022-10-12T08:12:04.820Z,100242.38
2022-10-12T08:14:32.294Z,100232.53
2022-10-12T08:16:59.717Z,100236.84
2022-10-12T08:19:29.648Z,100232.84
2022-10-12T08:21:59.330Z,100229.59
2022-10-12T08:24:26.804Z,100233.13
2022-10-12T08:26:56.885Z,100238.66
2022-10-12T08:29:28.002Z,100231.06
2022-10-12T08:31:55.429Z,100223.06
2022-10-12T08:34:25.253Z,100224.88
2022-10-12T08:36:52.985Z,100223.66
2022-10-12T08:39:20.338Z,100220.41
2022-10-12T08:45:01.147Z,100222.31
2022-10-12T08:50:19.101Z,100207.34
2022-10-12T08:52:56.113Z,100214.75
2022-10-12T08:55:44.811Z,100206.69
2022-10-12T08:58:20.907Z,100213.34
2022-10-12T09:00:52.786Z,100214.94
2022-10-12T09:14:25.650Z,100208.56
2022-10-12T09:16:56.258Z,100197.53
2022-10-12T09:19:36.128Z,100204.88
2022-10-12T09:22:05.693Z,100205.66
2022-10-12T09:24:36.804Z,100205.09
2022-10-12T09:27:17.434Z,100201.34
2022-10-12T09:29:49.569Z,100207.16
2022-10-12T09:35:14.138Z,100200.84
2022-10-12T09:37:42.094Z,100195.41
2022-10-12T09:40:21.882Z,100199.53
2022-10-12T09:42:50.626Z,100197.91
2022-10-12T09:45:20.949Z,100192.94
2022-10-12T09:50:52.800Z,100181.63
2022-10-12T09:58:54.346Z,100179.50
2022-10-12T10:04:24.347Z,100183.69
2022-10-12T10:06:52.109Z,100180.13
2022-10-12T10:12:22.932Z,100182.16
2022-10-12T10:14:52.816Z,100179.81
2022-10-12T10:17:26.548Z,100179.31
2022-10-12T10:19:56.084Z,100186.59
2022-10-12T10:22:24.781Z,100178.28
2022-10-12T10:24:59.947Z,100178.22
2022-10-12T10:27:37.375Z,100184.88
2022-10-12T10:30:32.499Z,100179.28
2022-10-12T10:33:20.260Z,100182.97
2022-10-12T10:38:48.768Z,100179.81
2022-10-12T10:41:18.468Z,100173.81
2022-10-12T10:43:50.113Z,100178.00
2022-10-12T10:46:26.371Z,100178.97
2022-10-12T10:49:01.840Z,100176.88
2022-10-12T10:57:10.799Z,100169.78
2022-10-12T11:02:38.817Z,100177.00
2022-10-12T11:05:14.484Z,100175.44
2022-10-12T11:07:54.799Z,100181.88
2022-10-12T11:10:48.733Z,100180.31
2022-10-12T11:13:56.158Z,100172.72
2022-10-12T11:19:26.790Z,100173.13
2022-10-12T11:22:03.306Z,100177.56
2022-10-12T11:24:43.632Z,100181.50
2022-10-12T11:27:39.259Z,100168.25
2022-10-12T11:30:14.972Z,100166.44
2022-10-12T11:32:47.034Z,100174.84
2022-10-12T11:35:24.985Z,100175.63
2022-10-12T11:37:59.640Z,100176.78
2022-10-12T11:40:48.100Z,100174.69
2022-10-12T11:43:25.656Z,100163.88
2022-10-12T11:45:57.074Z,100170.34
2022-10-12T11:48:29.916Z,100170.59
2022-10-12T11:51:03.901Z,100172.94
2022-10-12T11:56:39.993Z,100169.78
2022-10-12T11:59:20.065Z,100170.31
2022-10-12T12:02:01.021Z,100165.94
2022-10-12T12:07:45.611Z,100172.75
2022-10-12T12:13:20.777Z,100162.28
2022-10-12T12:18:30.369Z,100156.03
2022-10-12T12:21:13.553Z,100163.28
2022-10-12T12:23:43.908Z,100171.63
2022-10-12T12:28:52.979Z,100163.19
2022-10-12T12:31:28.307Z,100160.84
2022-10-12T12:34:17.211Z,100162.41
2022-10-12T12:36:48.090Z,100168.69
2022-10-12T12:39:34.247Z,100163.81
2022-10-12T12:42:04.039Z,100171.41
2022-10-12T12:49:53.997Z,100168.53
2022-10-12T12:52:29.461Z,100171.66
2022-10-12T13:09:36.316Z,100174.41
2022-10-12T13:20:22.088Z,100180.53
2022-10-12T13:22:52.194Z,100178.28
2022-10-12T13:28:11.001Z,100176.94
2022-10-12T13:36:35.740Z,100183.56
2022-10-12T13:39:21.720Z,100186.13
2022-10-12T13:41:52.432Z,100184.19
2022-10-12T13:44:34.865Z,100182.78
2022-10-12T13:47:20.811Z,100196.09
2022-10-12T13:49:48.570Z,100185.94
2022-10-12T13:54:53.035Z,100199.84
2022-10-12T14:02:58.680Z,100217.50
2022-10-12T14:05:28.986Z,100212.03
2022-10-12T14:08:03.642Z,100222.88
2022-10-12T14:10:35.750Z,100214.34
2022-10-12T14:13:05.786Z,100218.03
2022-10-12T14:15:36.561Z,100224.47
2022-10-12T14:18:04.743Z,100226.97
2022-10-12T14:20:37.480Z,100233.44
2022-10-12T14:23:25.256Z,100239.13
2022-10-12T14:25:54.824Z,100236.84
2022-10-12T14:28:38.226Z,100233.38
2022-10-12T14:31:05.852Z,100239.81
2022-10-12T14:33:33.441Z,100243.44
2022-10-12T14:39:13.498Z,100247.53
2022-10-12T14:41:51.135Z,100257.94
2022-10-12T14:44:20.806Z,100259.19
2022-10-12T14:49:45.297Z,100260.84
2022-10-12T14:52:42.877Z,100263.66
2022-10-12T14:55:16.131Z,100274.00
2022-10-12T14:57:44.184Z,100274.84
2022-10-12T15:00:23.640Z,100274.84
2022-10-12T15:02:51.808Z,100274.84
2022-10-12T15:05:21.837Z,100277.97
2022-10-12T15:07:50.147Z,100285.13
2022-10-12T15:10:20.920Z,100283.56
2022-10-12T15:12:48.692Z,100295.13
2022-10-12T15:15:29.402Z,100291.97
2022-10-12T15:17:57.395Z,100295.59
2022-10-12T15:20:26.243Z,100296.81
2022-10-12T15:22:54.096Z,100296.84
2022-10-12T15:25:33.022Z,100294.09
2022-10-12T15:28:00.543Z,100299.66
2022-10-12T15:30:28.146Z,100298.88
2022-10-12T15:32:55.687Z,100304.44
2022-10-12T15:35:26.261Z,100306.03
2022-10-12T15:37:56.535Z,100313.19
2022-10-12T15:40:25.130Z,100311.59
2022-10-12T15:42:52.632Z,100317.53
2022-10-12T15:45:38.896Z,100325.44
2022-10-12T15:48:08.848Z,100323.88
2022-10-12T15:50:41.212Z,100318.31
2022-10-12T15:53:11.870Z,100324.22
2022-10-12T15:55:39.516Z,100318.69
2022-10-12T15:58:07.210Z,100326.56
2022-10-12T16:00:35.191Z,100326.56
2022-10-12T16:03:02.840Z,100328.91
2022-10-12T16:05:33.970Z,100329.69
2022-10-12T16:08:03.184Z,100322.94
2022-10-12T16:10:35.362Z,100318.19
2022-10-12T16:13:03.723Z,100321.72
2022-10-12T16:15:33.661Z,100329.22
2022-10-12T16:18:02.809Z,100331.19
2022-10-12T16:20:32.613Z,100330.41
2022-10-12T16:23:01.478Z,100333.19
2022-10-12T16:25:29.275Z,100339.91
2022-10-12T16:27:58.451Z,100345.44
2022-10-12T16:30:27.439Z,100342.31
2022-10-12T16:32:55.326Z,100336.38
2022-10-12T16:35:23.556Z,100347.09
2022-10-12T16:37:51.318Z,100342.34
2022-10-12T16:40:19.277Z,100349.09
2022-10-12T16:42:53.506Z,100347.09
2022-10-12T16:45:22.382Z,100344.75
2022-10-12T16:47:50.919Z,100355.06
2022-10-12T16:50:26.019Z,100348.34
2022-10-12T16:52:55.976Z,100350.72
2022-10-12T16:55:23.673Z,100354.28
2022-10-12T16:57:59.921Z,100353.13
2022-10-12T17:00:28.073Z,100345.22
2022-10-12T17:02:57.489Z,100353.94
2022-10-12T17:05:25.272Z,100355.56
2022-10-12T17:07:55.549Z,100350.00
2022-10-12T17:10:23.062Z,100351.22
2022-10-12T17:12:50.720Z,100360.28
2022-10-12T17:15:18.500Z,100359.53
2022-10-12T17:17:46.103Z,100352.41
2022-10-12T17:20:13.765Z,100355.56
2022-10-12T17:22:49.669Z,100359.13
2022-10-12T17:25:21.725Z,100361.50
2022-10-12T17:27:50.905Z,100367.84
2022-10-12T17:30:24.783Z,100370.63
2022-10-12T17:32:53.873Z,100362.31
2022-10-12T17:35:21.439Z,100368.63
2022-10-12T17:37:54.951Z,100372.97
2022-10-12T17:40:25.212Z,100373.41
2022-10-12T17:42:52.768Z,100368.63
2022-10-12T17:45:20.438Z,100365.47
2022-10-12T17:47:49.385Z,100366.28
2022-10-12T17:50:17.074Z,100368.25
2022-10-12T17:52:44.612Z,100376.56
2022-10-12T17:55:29.574Z,100385.66
2022-10-12T17:57:59.833Z,100376.56
2022-10-12T18:00:27.851Z,100377.72
2022-10-12T18:02:55.438Z,100386.03
2022-10-12T18:05:23.011Z,100383.28
2022-10-12T18:07:50.959Z,100384.84
2022-10-12T18:10:18.951Z,100389.22
2022-10-12T18:12:47.014Z,100392.00
2022-10-12T18:15:14.618Z,100394.78
2022-10-12T18:17:42.206Z,100393.59
2022-10-12T18:20:10.358Z,100384.50
2022-10-12T18:22:37.887Z,100392.81
2022-10-12T18:25:05.872Z,100395.97
2022-10-12T18:27:34.593Z,100400.31
2022-10-12T18:30:02.303Z,100398.31
2022-10-12T18:32:30.442Z,100403.44
2022-10-12T18:34:58.890Z,100405.03
2022-10-12T18:37:26.808Z,100409.75
2022-10-12T18:39:54.722Z,100402.66
2022-10-12T18:42:22.325Z,100408.19
2022-10-12T18:44:49.952Z,100404.22
2022-10-12T18:47:20.934Z,100402.63
2022-10-12T18:49:51.889Z,100412.88
2022-10-12T18:52:21.271Z,100416.03
2022-10-12T18:54:51.099Z,100412.09
2022-10-12T18:57:18.785Z,100410.50
2022-10-12T18:59:46.399Z,100414.44
2022-10-12T19:02:17.525Z,100425.47
2022-10-12T19:04:45.166Z,100418.31
2022-10-12T19:07:13.030Z,100417.53
2022-10-12T19:09:40.547Z,100421.00
2022-10-12T19:12:21.864Z,100426.06
2022-10-12T19:14:50.411Z,100420.91
2022-10-12T19:17:22.653Z,100423.59
2022-10-12T19:19:51.643Z,100417.69
2022-10-12T19:22:19.430Z,100417.63
2022-10-12T19:24:48.411Z,100423.91
2022-10-12T19:27:15.980Z,100425.81
2022-10-12T19:29:45.781Z,100424.19
2022-10-12T19:32:13.559Z,100427.28
2022-10-12T19:34:41.079Z,100432.34
2022-10-12T19:37:08.550Z,100426.81
2022-10-12T19:39:36.710Z,100425.56
2022-10-12T19:42:04.190Z,100423.94
2022-10-12T19:44:31.705Z,100434.13
2022-10-12T19:47:00.326Z,100432.53
2022-10-12T19:49:27.975Z,100436.41
2022-10-12T19:51:56.009Z,100430.81
2022-10-12T19:54:23.774Z,100435.16
2022-10-12T19:56:51.287Z,100439.44
2022-10-12T19:59:18.817Z,100441.78
2022-10-12T20:01:48.398Z,100444.09
2022-10-12T20:04:16.454Z,100449.59
2022-10-12T20:06:44.256Z,100448.00
2022-10-12T20:09:11.865Z,100445.22
2022-10-12T20:11:39.402Z,100447.16
2022-10-12T20:14:07.988Z,100451.41
2022-10-12T20:16:36.614Z,100457.69
2022-10-12T20:19:07.210Z,100456.09
2022-10-12T20:21:36.876Z,100461.19
2022-10-12T20:24:05.211Z,100462.72
2022-10-12T20:26:32.746Z,100469.34
2022-10-12T20:29:01.290Z,100468.13
2022-10-12T20:31:29.773Z,100466.97
2022-10-12T20:33:58.548Z,100461.41
2022-10-12T20:36:28.789Z,100466.91
2022-10-12T20:38:58.149Z,100458.63
2022-10-12T20:41:26.661Z,100455.44
2022-10-12T20:43:56.709Z,100458.97
2022-10-12T20:46:24.692Z,100473.44
2022-10-12T20:48:57.361Z,100471.78
2022-10-12T20:51:28.894Z,100462.25
2022-10-12T20:53:59.586Z,100466.09
2022-10-12T20:56:29.288Z,100472.25
2022-10-12T20:58:57.015Z,100463.47
2022-10-12T21:01:26.299Z,100470.41
2022-10-12T21:03:54.812Z,100469.97
2022-10-12T21:06:23.759Z,100471.88
2022-10-12T21:08:54.201Z,100467.47
2022-10-12T21:11:22.266Z,100464.72
2022-10-12T21:13:50.396Z,100476.09
2022-10-12T21:16:18.814Z,100468.91
2022-10-12T21:18:46.198Z,100469.94
2022-10-12T21:21:19.126Z,100465.88
2022-10-12T21:23:55.851Z,100466.09
2022-10-12T21:26:25.272Z,100475.94
2022-10-12T21:28:53.021Z,100478.34
2022-10-12T21:31:21.169Z,100473.63
2022-10-12T21:33:48.674Z,100476.38
2022-10-12T21:36:20.461Z,100477.66
2022-10-12T21:38:48.136Z,100481.63
2022-10-12T21:41:16.762Z,100471.13
2022-10-12T21:43:44.482Z,100478.25
2022-10-12T21:46:14.957Z,100476.84
2022-10-12T21:48:43.034Z,100475.72
2022-10-12T21:51:11.113Z,100477.28
2022-10-12T21:53:40.295Z,100473.81
2022-10-12T21:56:14.542Z,100480.97
2022-10-12T21:58:42.143Z,100473.13
2022-10-12T22:01:13.894Z,100476.25
2022-10-12T22:03:41.910Z,100480.47
2022-10-12T22:06:14.922Z,100470.59
2022-10-12T22:08:43.493Z,100478.34
2022-10-12T22:11:13.886Z,100473.56
2022-10-12T22:13:41.351Z,100482.97
2022-10-12T22:16:12.123Z,100480.94
2022-10-12T22:18:40.277Z,100483.28
2022-10-12T22:21:10.795Z,100478.84
2022-10-12T22:23:38.413Z,100482.69
2022-10-12T22:26:09.801Z,100479.81
2022-10-12T22:28:37.447Z,100478.09
2022-10-12T22:31:08.832Z,100481.59
2022-10-12T22:33:37.621Z,100482.75
2022-10-12T22:36:06.763Z,100488.19
2022-10-12T22:38:35.309Z,100486.94
2022-10-12T22:41:18.085Z,100489.69
2022-10-12T22:43:48.397Z,100489.03
2022-10-12T22:46:15.972Z,100486.75
2022-10-12T22:48:43.453Z,100487.56
2022-10-12T22:51:17.645Z,100496.19
2022-10-12T22:53:45.305Z,100497.69
2022-10-12T22:56:18.619Z,100495.25
2022-10-12T22:58:48.630Z,100498.00
2022-10-12T23:01:18.067Z,100496.44
2022-10-12T23:03:46.295Z,100498.81
2022-10-12T23:06:16.834Z,100508.34
2022-10-12T23:08:44.892Z,100504.78
2022-10-12T23:11:15.838Z,100502.09
2022-10-12T23:13:44.171Z,100505.00
2022-10-12T23:16:15.986Z,100496.34
2022-10-12T23:18:43.440Z,100509.75
2022-10-12T23:21:14.863Z,100508.16
2022-10-12T23:23:43.544Z,100512.50
2022-10-12T23:26:14.721Z,100505.03
2022-10-12T23:28:42.938Z,100505.91
2022-10-12T23:31:21.070Z,100509.09
2022-10-12T23:33:57.508Z,100508.34
2022-10-12T23:36:24.930Z,100513.09
2022-10-12T23:38:52.406Z,100509.19
2022-10-12T23:41:19.869Z,100511.56
2022-10-12T23:43:47.659Z,100515.53
2022-10-12T23:46:15.138Z,100516.78
2022-10-12T23:48:42.649Z,100515.66
2022-10-12T23:51:10.990Z,100515.72
2022-10-12T23:53:39.026Z,100519.66
2022-10-12T23:56:07.237Z,100512.66
2022-10-12T23:58:35.103Z,100525.34
